West Bend, Wisconsin
Current Conditions -  °F | °C
As of 1:10 PM on Saturday 20 Dec 2014 (Local Time) from KETB Reporting Station
Light Snow Light Snow  
Wind Chill: 30°   Ceiling: 5000
Heat Index: 30°   Visibility: 10mi
Dew Point: 21°   Wind: 0mph
Humidity: 69%   Direction: NA
Pressure: 30.22"   Gusts: NA
Location:  43.41°N, 88.18°W
Report Text: KETB 201910Z AUTO 00000KT 10SM -SN SCT030 SCT043 OVC050 M01/M06 A3022 RMK AO2
Loading
Personal Weather Stations






























Interactive Weather Map New forecast layout! Learn more

10-Day Weather Forecast

Advertisements
Track Severe Weather on mobile